Time;durP1;ratioP1;P1;durP2;ratioP2;P2;SDS_P1;SDS_P2;PMS_P1;PMS_P2;Temp;Humidity;BMP_temperature;BMP_pressure;BME280_temperature;BME280_humidity;BME280_pressure;Samples;Min_cycle;Max_cycle;Signal;HPM_P1;HPM_P2
2021/01/31 00:00:45;;;;;;;22.45;15.63;;;0.30;91.50;;;;;;5116358;28;20110;-66
2021/01/31 00:03:16;;;;;;;21.00;15.93;;;0.30;91.50;;;;;;5116468;28;20028;-66
2021/01/31 00:05:45;;;;;;;22.63;15.25;;;0.20;91.50;;;;;;5115390;28;20067;-66
2021/01/31 00:08:13;;;;;;;20.80;14.75;;;0.10;91.50;;;;;;5116343;28;20137;-66
2021/01/31 00:10:39;;;;;;;20.52;14.68;;;0.10;91.60;;;;;;5097602;28;20019;-66
2021/01/31 00:13:05;;;;;;;20.38;14.43;;;0.10;91.70;;;;;;5115552;28;20020;-66
2021/01/31 00:15:34;;;;;;;20.05;14.70;;;0.10;91.70;;;;;;5097633;28;20023;-66
2021/01/31 00:18:01;;;;;;;22.95;15.20;;;0.10;91.70;;;;;;5116094;28;20031;-65
2021/01/31 00:20:29;;;;;;;20.00;14.75;;;0.00;91.70;;;;;;5096600;28;20483;-65
2021/01/31 00:22:55;;;;;;;20.88;15.27;;;0.10;91.70;;;;;;5116174;28;20020;-67
2021/01/31 00:25:21;;;;;;;23.63;16.05;;;0.00;91.60;;;;;;5115538;28;20042;-66
2021/01/31 00:27:47;;;;;;;20.67;14.82;;;0.00;91.70;;;;;;5115253;28;20020;-67
2021/01/31 00:30:40;;;;;;;20.63;14.75;;;0.00;91.80;;;;;;5116046;28;20379;-66
2021/01/31 00:33:09;;;;;;;21.25;14.90;;;0.00;91.90;;;;;;5115424;28;20026;-67
2021/01/31 00:35:37;;;;;;;20.80;15.75;;;-0.10;91.80;;;;;;5115482;28;20024;-65
2021/01/31 00:38:04;;;;;;;21.02;14.88;;;-0.10;92.00;;;;;;5097307;28;20081;-65
2021/01/31 00:40:29;;;;;;;20.35;14.10;;;-0.10;92.00;;;;;;5114575;28;20031;-68
2021/01/31 00:42:55;;;;;;;22.45;15.27;;;-0.10;92.00;;;;;;5115668;28;20024;-66
2021/01/31 00:45:23;;;;;;;22.42;15.68;;;-0.20;92.10;;;;;;5115282;28;20383;-66
2021/01/31 00:47:48;;;;;;;25.13;17.90;;;-0.20;92.10;;;;;;5114863;28;20015;-65
2021/01/31 00:50:20;;;;;;;22.02;15.50;;;-0.20;92.20;;;;;;5115532;28;20529;-66
2021/01/31 00:52:45;;;;;;;21.33;14.68;;;-0.30;92.20;;;;;;5113048;28;20096;-65
2021/01/31 00:55:12;;;;;;;21.98;15.63;;;-0.30;92.20;;;;;;5115412;28;20031;-65
2021/01/31 00:57:37;;;;;;;22.10;15.77;;;-0.30;92.20;;;;;;5115040;28;20032;-65
2021/01/31 01:00:16;;;;;;;23.60;16.60;;;-0.30;92.30;;;;;;5114416;28;20042;-65
2021/01/31 01:02:41;;;;;;;25.13;15.75;;;-0.40;92.30;;;;;;5115023;28;20539;-65
2021/01/31 01:05:08;;;;;;;19.85;14.65;;;-0.40;92.40;;;;;;5114590;28;20024;-65
2021/01/31 01:07:33;;;;;;;21.40;15.60;;;-0.40;92.40;;;;;;5114172;28;20080;-65
2021/01/31 01:09:59;;;;;;;21.80;15.77;;;-0.40;92.50;;;;;;5114995;28;20023;-65
2021/01/31 01:12:24;;;;;;;22.77;15.85;;;-0.40;92.40;;;;;;5115027;28;20065;-65
2021/01/31 01:14:50;;;;;;;22.55;15.63;;;-0.40;92.40;;;;;;5114381;28;20491;-65
2021/01/31 01:17:15;;;;;;;19.35;13.57;;;-0.50;92.60;;;;;;5114913;28;20016;-66
2021/01/31 01:19:41;;;;;;;25.65;16.95;;;-0.40;92.60;;;;;;5114423;28;20032;-67
2021/01/31 01:22:06;;;;;;;20.83;14.70;;;-0.50;92.60;;;;;;5114351;28;20111;-64
2021/01/31 01:24:32;;;;;;;22.60;15.73;;;-0.50;92.70;;;;;;5114512;28;20100;-65
2021/01/31 01:26:57;;;;;;;22.35;16.02;;;-0.50;92.70;;;;;;5114901;28;20052;-65
2021/01/31 01:29:23;;;;;;;22.02;16.55;;;-0.50;92.70;;;;;;5113634;28;20073;-65
2021/01/31 01:31:49;;;;;;;22.98;17.13;;;-0.50;92.60;;;;;;5114762;28;20031;-65
2021/01/31 01:34:15;;;;;;;21.40;15.10;;;-0.50;92.70;;;;;;5114797;28;20027;-64
2021/01/31 01:36:40;;;;;;;21.50;14.43;;;-0.50;92.70;;;;;;5113606;28;20619;-65
2021/01/31 01:39:06;;;;;;;23.83;16.95;;;-0.50;92.70;;;;;;5114349;28;20134;-65
2021/01/31 01:41:40;;;;;;;20.75;15.23;;;-0.50;92.80;;;;;;5114285;28;20027;-64
2021/01/31 01:44:06;;;;;;;19.23;15.02;;;-0.60;92.80;;;;;;5114610;28;20413;-65
2021/01/31 01:46:37;;;;;;;21.35;14.23;;;-0.60;92.80;;;;;;5095777;28;20030;-64
2021/01/31 01:49:24;;;;;;;20.35;15.45;;;-0.60;92.80;;;;;;5113769;28;20065;-66
2021/01/31 01:51:58;;;;;;;22.73;15.32;;;-0.60;92.80;;;;;;5114238;28;20495;-64
2021/01/31 01:54:30;;;;;;;22.02;15.98;;;-0.50;92.80;;;;;;5114060;28;20026;-65
2021/01/31 01:57:03;;;;;;;20.33;14.60;;;-0.50;92.80;;;;;;5113564;28;20024;-64
2021/01/31 01:59:30;;;;;;;21.52;15.63;;;-0.50;92.80;;;;;;5095507;28;20391;-64
2021/01/31 02:02:31;;;;;;;20.80;14.98;;;-0.60;92.80;;;;;;5114066;28;20031;-64
2021/01/31 02:05:02;;;;;;;20.17;14.80;;;-0.60;92.90;;;;;;5113422;28;20372;-66
2021/01/31 02:07:28;;;;;;;21.20;15.90;;;-0.50;92.90;;;;;;5113808;28;20023;-65
2021/01/31 02:09:54;;;;;;;19.40;14.32;;;-0.50;92.90;;;;;;5113132;28;20468;-64
2021/01/31 02:12:25;;;;;;;20.90;16.30;;;-0.60;92.80;;;;;;5113626;28;20024;-67
2021/01/31 02:14:53;;;;;;;21.88;14.70;;;-0.60;92.90;;;;;;5095781;28;20367;-64
2021/01/31 02:17:57;;;;;;;24.60;14.88;;;-0.60;92.90;;;;;;5111967;28;20095;-64
2021/01/31 02:20:33;;;;;;;21.10;15.02;;;-0.60;93.00;;;;;;4994533;28;20137;-64
2021/01/31 02:23:26;;;;;;;21.33;15.82;;;-0.60;92.90;;;;;;5082033;28;20425;-68
2021/01/31 02:26:11;;;;;;;18.60;14.43;;;-0.70;92.90;;;;;;5113149;28;20031;-65
2021/01/31 02:29:01;;;;;;;21.38;15.30;;;-0.70;92.90;;;;;;5113352;28;20019;-64
2021/01/31 02:32:02;;;;;;;21.05;15.13;;;-0.70;92.90;;;;;;5112519;28;20016;-64
2021/01/31 02:34:33;;;;;;;19.92;14.30;;;-0.70;92.90;;;;;;5113285;28;20057;-63
2021/01/31 02:37:17;;;;;;;23.02;16.58;;;-0.80;93.00;;;;;;5095221;28;20024;-65
2021/01/31 02:40:07;;;;;;;20.67;14.45;;;-0.80;93.00;;;;;;5112504;28;20051;-64
2021/01/31 02:42:39;;;;;;;22.52;15.43;;;-0.70;93.00;;;;;;5113179;28;20031;-64
2021/01/31 02:45:27;;;;;;;22.80;15.70;;;-0.80;93.00;;;;;;5112875;28;20027;-64
2021/01/31 02:47:59;;;;;;;20.15;14.07;;;-0.80;93.00;;;;;;5113411;28;20068;-64
2021/01/31 02:50:30;;;;;;;20.85;14.52;;;-0.70;93.00;;;;;;5112986;28;20023;-64
2021/01/31 02:53:06;;;;;;;20.67;14.95;;;-0.80;93.00;;;;;;5112690;28;20019;-64
2021/01/31 02:55:44;;;;;;;22.30;15.40;;;-0.80;93.10;;;;;;5113057;28;20053;-64
2021/01/31 02:58:21;;;;;;;20.95;15.18;;;-0.80;93.10;;;;;;5095275;28;20066;-64
2021/01/31 03:01:02;;;;;;;23.02;16.27;;;-0.80;93.10;;;;;;5112357;28;20550;-64
2021/01/31 03:03:41;;;;;;;20.70;14.95;;;-0.80;93.10;;;;;;5113008;28;20031;-64
2021/01/31 03:06:14;;;;;;;21.00;14.85;;;-0.80;93.10;;;;;;5112538;28;20023;-64
2021/01/31 03:08:47;;;;;;;24.40;16.45;;;-0.90;93.10;;;;;;5112877;28;20016;-64
2021/01/31 03:11:32;;;;;;;19.35;14.25;;;-0.80;93.20;;;;;;5113117;28;20023;-64
2021/01/31 03:14:09;;;;;;;22.67;15.00;;;-0.90;93.20;;;;;;5112853;28;20026;-63
2021/01/31 03:16:47;;;;;;;21.63;15.85;;;-0.90;93.20;;;;;;5094601;28;20421;-64
2021/01/31 03:19:25;;;;;;;21.73;15.95;;;-0.90;93.20;;;;;;5112847;28;20026;-64
2021/01/31 03:21:57;;;;;;;24.00;16.23;;;-1.00;93.20;;;;;;5112399;28;20547;-64
2021/01/31 03:24:36;;;;;;;22.83;14.88;;;-1.00;93.30;;;;;;5112857;28;20023;-64
2021/01/31 03:27:04;;;;;;;22.05;14.77;;;-1.00;93.30;;;;;;5113152;28;20028;-64
2021/01/31 03:29:30;;;;;;;21.58;15.15;;;-1.00;93.40;;;;;;5116184;28;20032;-64
2021/01/31 03:32:01;;;;;;;24.33;15.55;;;-1.00;93.30;;;;;;5117007;28;20077;-64
2021/01/31 03:34:42;;;;;;;22.42;15.20;;;-1.00;93.30;;;;;;5115983;28;20469;-64
2021/01/31 03:37:09;;;;;;;19.37;14.23;;;-1.00;93.40;;;;;;5117082;28;20024;-64
2021/01/31 03:39:39;;;;;;;21.50;15.13;;;-1.00;93.40;;;;;;5116285;28;20083;-64
2021/01/31 03:42:04;;;;;;;21.38;14.60;;;-1.00;93.40;;;;;;5116190;28;20027;-65
2021/01/31 03:44:33;;;;;;;20.98;15.38;;;-1.00;93.40;;;;;;5116476;28;20026;-64
2021/01/31 03:47:06;;;;;;;21.50;14.75;;;-1.00;93.40;;;;;;5098653;28;20463;-64
2021/01/31 03:49:41;;;;;;;23.67;16.05;;;-1.00;93.40;;;;;;5115673;28;20020;-65
2021/01/31 03:52:06;;;;;;;22.13;15.45;;;-1.10;93.50;;;;;;5116827;28;20055;-64
2021/01/31 03:54:32;;;;;;;25.42;16.92;;;-1.10;93.50;;;;;;5116235;28;20051;-64
2021/01/31 03:57:34;;;;;;;21.35;15.35;;;-1.10;93.50;;;;;;5116220;28;20379;-64
2021/01/31 04:00:08;;;;;;;22.02;14.52;;;-1.10;93.50;;;;;;5063675;28;20048;-64
2021/01/31 04:02:39;;;;;;;20.58;14.50;;;-1.10;93.50;;;;;;5115594;28;20028;-64
2021/01/31 04:05:06;;;;;;;21.45;15.25;;;-1.10;93.50;;;;;;5116406;28;20024;-64
2021/01/31 04:07:37;;;;;;;21.02;15.75;;;-1.10;93.50;;;;;;5115956;28;20577;-64
2021/01/31 04:10:04;;;;;;;19.80;15.00;;;-1.10;93.60;;;;;;5115629;28;20019;-64
2021/01/31 04:12:36;;;;;;;21.20;15.55;;;-1.10;93.60;;;;;;5115978;28;20488;-64
2021/01/31 04:15:05;;;;;;;;;;;-1.10;93.60;;;;;;5116709;28;20027;-64
2021/01/31 04:17:30;;;;;;;22.08;15.30;;;-1.20;93.50;;;;;;5115230;28;19947;-65
2021/01/31 04:19:56;;;;;;;22.00;15.10;;;-1.20;93.50;;;;;;5115983;28;20116;-65
2021/01/31 04:22:21;;;;;;;22.00;15.20;;;-1.20;93.50;;;;;;5115947;28;20027;-64
2021/01/31 04:24:47;;;;;;;23.20;15.43;;;-1.20;93.50;;;;;;5115255;28;20066;-65
2021/01/31 04:27:16;;;;;;;22.55;15.95;;;-1.20;93.60;;;;;;5115866;28;20448;-64
2021/01/31 04:29:41;;;;;;;21.73;15.05;;;-1.20;93.60;;;;;;5115734;28;20034;-64
2021/01/31 04:32:07;;;;;;;24.65;16.52;;;-1.20;93.70;;;;;;5115408;28;20446;-64
2021/01/31 04:34:32;;;;;;;22.08;15.75;;;-1.20;93.70;;;;;;5115670;28;20102;-64
2021/01/31 04:36:58;;;;;;;22.20;15.80;;;-1.20;93.70;;;;;;5115785;28;20020;-64
2021/01/31 04:39:24;;;;;;;24.40;16.52;;;-1.20;93.70;;;;;;5113362;28;20043;-65
2021/01/31 04:41:50;;;;;;;21.25;14.80;;;-1.20;93.70;;;;;;5115684;28;20032;-64
2021/01/31 04:44:19;;;;;;;20.25;14.18;;;-1.30;93.80;;;;;;5115759;28;20055;-64
2021/01/31 04:46:47;;;;;;;21.10;14.85;;;-1.30;93.80;;;;;;5115182;28;20028;-64
2021/01/31 04:49:39;;;;;;;21.73;14.23;;;-1.30;93.80;;;;;;5115674;28;20025;-64
2021/01/31 04:52:23;;;;;;;21.50;15.27;;;-1.30;93.80;;;;;;5096796;28;20058;-64
2021/01/31 04:55:15;;;;;;;22.27;15.05;;;-1.30;93.80;;;;;;5115574;28;20098;-64
2021/01/31 04:58:11;;;;;;;22.10;15.00;;;-1.30;93.80;;;;;;5115155;28;20027;-64
2021/01/31 05:00:44;;;;;;;20.60;15.18;;;-1.30;93.80;;;;;;5103867;28;20419;-64
2021/01/31 05:03:11;;;;;;;20.10;13.55;;;-1.30;93.80;;;;;;5115539;28;20023;-64
2021/01/31 05:05:45;;;;;;;20.60;14.50;;;-1.30;93.90;;;;;;5114314;28;20072;-64
2021/01/31 05:08:19;;;;;;;20.48;14.45;;;-1.30;93.90;;;;;;5115243;28;20534;-64
2021/01/31 05:10:45;;;;;;;21.73;14.15;;;-1.30;93.90;;;;;;5115247;28;20024;-64
2021/01/31 05:13:23;;;;;;;21.60;15.68;;;-1.30;93.90;;;;;;5114269;28;20041;-64
2021/01/31 05:16:15;;;;;;;20.27;13.43;;;-1.30;93.90;;;;;;5115350;28;20028;-64
2021/01/31 05:18:46;;;;;;;21.27;14.38;;;-1.30;93.90;;;;;;5114569;28;20349;-64
2021/01/31 05:21:16;;;;;;;21.52;14.27;;;-1.30;93.90;;;;;;5114270;28;20020;-64
2021/01/31 05:23:47;;;;;;;21.00;14.88;;;-1.30;94.00;;;;;;5114634;28;20092;-64
2021/01/31 05:26:16;;;;;;;21.20;15.00;;;-1.30;93.90;;;;;;5114843;28;20019;-63
2021/01/31 05:28:46;;;;;;;21.15;14.75;;;-1.40;93.90;;;;;;5113764;28;20051;-64
2021/01/31 05:31:13;;;;;;;21.17;14.82;;;-1.40;94.00;;;;;;5114696;28;20051;-64
2021/01/31 05:34:05;;;;;;;21.73;14.35;;;-1.40;94.00;;;;;;5114431;28;20047;-64
2021/01/31 05:36:33;;;;;;;19.90;13.65;;;-1.40;93.90;;;;;;5096113;28;20024;-63
2021/01/31 05:38:59;;;;;;;20.50;14.30;;;-1.40;93.90;;;;;;5114273;28;20047;-64
2021/01/31 05:41:47;;;;;;;18.55;13.32;;;-1.40;93.90;;;;;;5095137;28;20118;-64
2021/01/31 05:44:15;;;;;;;22.05;15.13;;;-1.40;93.90;;;;;;5114356;28;20019;-64
2021/01/31 05:46:56;;;;;;;24.08;14.57;;;-1.40;94.00;;;;;;5114106;28;20476;-65
2021/01/31 05:49:39;;;;;;;20.08;14.52;;;-1.40;94.00;;;;;;5113409;28;20031;-66
2021/01/31 05:52:11;;;;;;;21.42;15.30;;;-1.40;94.00;;;;;;5114555;28;20026;-65
2021/01/31 05:54:39;;;;;;;21.55;14.80;;;-1.50;94.00;;;;;;5114274;28;20446;-65
2021/01/31 05:57:25;;;;;;;24.45;16.55;;;-1.50;94.00;;;;;;5113527;28;20464;-68
2021/01/31 05:59:51;;;;;;;21.65;14.95;;;-1.40;94.00;;;;;;5113973;28;20027;-65
2021/01/31 06:02:55;;;;;;;21.13;14.43;;;-1.50;94.00;;;;;;5113583;28;20384;-66
2021/01/31 06:05:21;;;;;;;21.50;14.20;;;-1.40;94.00;;;;;;5113620;28;20019;-66
2021/01/31 06:07:59;;;;;;;21.67;14.82;;;-1.50;94.00;;;;;;5113956;28;20023;-65
2021/01/31 06:10:25;;;;;;;20.55;14.85;;;-1.50;94.00;;;;;;5113006;28;20099;-65
2021/01/31 06:13:20;;;;;;;23.63;15.77;;;-1.50;94.00;;;;;;5114286;28;20106;-66
2021/01/31 06:15:55;;;;;;;24.63;15.63;;;-1.50;94.00;;;;;;5113894;28;20529;-66
2021/01/31 06:18:28;;;;;;;21.08;14.02;;;-1.60;94.00;;;;;;5113665;28;20027;-66
2021/01/31 06:21:17;;;;;;;25.42;16.15;;;-1.60;94.10;;;;;;5113648;28;20054;-66
2021/01/31 06:23:50;;;;;;;22.27;14.52;;;-1.60;94.10;;;;;;5113182;28;20059;-65
2021/01/31 06:26:28;;;;;;;21.23;14.43;;;-1.60;94.10;;;;;;5113909;28;20019;-66
2021/01/31 06:29:06;;;;;;;22.15;14.77;;;-1.60;94.10;;;;;;5113615;28;20028;-65
2021/01/31 06:31:42;;;;;;;21.80;14.80;;;-1.60;94.10;;;;;;5112703;28;20042;-65
2021/01/31 06:34:09;;;;;;;22.45;15.20;;;-1.70;94.10;;;;;;5113649;28;20039;-65
2021/01/31 06:36:43;;;;;;;21.50;14.13;;;-1.60;94.10;;;;;;5095101;28;20093;-65
2021/01/31 06:39:37;;;;;;;23.30;15.00;;;-1.70;94.10;;;;;;5112547;28;20044;-68
2021/01/31 06:42:30;;;;;;;21.15;14.05;;;-1.70;94.10;;;;;;5113557;28;20024;-66
2021/01/31 06:45:14;;;;;;;23.00;15.10;;;-1.70;94.20;;;;;;5113065;28;20023;-66
2021/01/31 06:48:01;;;;;;;20.83;13.90;;;-1.70;94.20;;;;;;5113110;28;20490;-66
2021/01/31 06:50:44;;;;;;;21.20;14.80;;;-1.70;94.10;;;;;;5113343;28;20102;-65
2021/01/31 06:53:25;;;;;;;23.35;14.15;;;-1.70;94.10;;;;;;5112782;28;20027;-64
2021/01/31 06:55:57;;;;;;;20.27;13.23;;;-1.70;94.20;;;;;;5113342;28;20020;-64
2021/01/31 06:58:54;;;;;;;23.60;15.02;;;-1.70;94.20;;;;;;5094130;28;20032;-64
2021/01/31 07:01:22;;;;;;;23.25;14.82;;;-1.70;94.20;;;;;;5094725;28;20145;-64
2021/01/31 07:04:11;;;;;;;22.15;14.70;;;-1.80;94.20;;;;;;5112605;28;20103;-64
2021/01/31 07:07:14;;;;;;;22.90;14.43;;;-1.80;94.20;;;;;;5112254;28;20056;-64
2021/01/31 07:09:45;;;;;;;24.52;14.98;;;-1.80;94.20;;;;;;5112736;28;20031;-64
2021/01/31 07:12:26;;;;;;;22.35;14.93;;;-1.80;94.20;;;;;;5112662;28;20383;-64
2021/01/31 07:15:02;;;;;;;23.77;15.10;;;-1.80;94.20;;;;;;5113096;28;20076;-64
2021/01/31 07:17:38;;;;;;;24.40;14.55;;;-1.80;94.30;;;;;;5112840;28;20030;-65
2021/01/31 07:20:22;;;;;;;23.85;15.55;;;-1.80;94.30;;;;;;5112102;28;20085;-65
2021/01/31 07:23:10;;;;;;;22.60;14.75;;;-1.80;94.20;;;;;;5113119;28;20098;-64
2021/01/31 07:25:57;;;;;;;19.92;13.07;;;-1.80;94.20;;;;;;5112802;28;20515;-65
2021/01/31 07:28:34;;;;;;;23.88;15.90;;;-1.80;94.30;;;;;;5111993;28;20479;-64
2021/01/31 07:31:18;;;;;;;25.55;15.55;;;-1.80;94.30;;;;;;5113087;28;20020;-65
2021/01/31 07:34:03;;;;;;;21.80;14.80;;;-1.80;94.20;;;;;;5112177;28;20026;-66
2021/01/31 07:37:11;;;;;;;22.02;14.57;;;-1.80;94.30;;;;;;5112704;28;20110;-64
2021/01/31 07:39:42;;;;;;;24.77;15.50;;;-1.80;94.30;;;;;;5112146;28;20105;-65
2021/01/31 07:42:10;;;;;;;23.43;15.07;;;-1.80;94.30;;;;;;5112289;28;20068;-65
2021/01/31 07:44:37;;;;;;;25.35;15.48;;;-1.80;94.40;;;;;;5112420;28;20023;-65
2021/01/31 07:47:03;;;;;;;23.00;15.25;;;-1.80;94.40;;;;;;5094440;28;20068;-65
2021/01/31 07:49:53;;;;;;;22.15;15.45;;;-1.80;94.40;;;;;;5111733;28;20057;-67
2021/01/31 07:52:19;;;;;;;22.45;14.98;;;-1.70;94.40;;;;;;5112578;28;20036;-64
2021/01/31 07:54:45;;;;;;;25.13;16.40;;;-1.70;94.30;;;;;;5111932;28;20482;-65
2021/01/31 07:57:34;;;;;;;24.92;15.80;;;-1.70;94.30;;;;;;5112942;28;20383;-64
2021/01/31 08:00:21;;;;;;;24.17;16.27;;;-1.70;94.30;;;;;;5112530;28;20384;-64
2021/01/31 08:02:55;;;;;;;22.90;16.10;;;-1.70;94.30;;;;;;5111299;28;20123;-68
2021/01/31 08:05:57;;;;;;;24.70;16.13;;;-1.70;94.30;;;;;;5112335;28;20059;-67
2021/01/31 08:08:36;;;;;;;23.88;15.45;;;-1.60;94.40;;;;;;5112248;28;20110;-64
2021/01/31 08:11:03;;;;;;;24.23;15.55;;;-1.60;94.30;;;;;;5112521;28;20031;-65
2021/01/31 08:13:49;;;;;;;23.80;15.20;;;-1.60;94.40;;;;;;5112178;28;20529;-66
2021/01/31 08:16:48;;;;;;;24.25;15.00;;;-1.50;94.40;;;;;;5115104;28;20028;-65
2021/01/31 08:19:16;;;;;;;24.60;16.20;;;-1.40;94.40;;;;;;5115968;28;20086;-64
2021/01/31 08:21:51;;;;;;;24.10;16.48;;;-1.30;94.40;;;;;;5115895;28;20141;-65
2021/01/31 08:24:54;;;;;;;25.00;15.15;;;-1.30;94.30;;;;;;5115619;28;20020;-66
2021/01/31 08:27:43;;;;;;;22.98;15.95;;;-1.20;94.30;;;;;;5115616;28;20031;-65
2021/01/31 08:30:30;;;;;;;24.00;16.05;;;-1.10;94.20;;;;;;5115015;28;20034;-64
2021/01/31 08:33:01;;;;;;;23.45;15.82;;;-0.90;94.20;;;;;;5084689;28;20450;-65
2021/01/31 08:35:33;;;;;;;21.37;14.57;;;-0.80;94.00;;;;;;5115596;28;20026;-65
2021/01/31 08:38:18;;;;;;;22.23;15.23;;;-0.80;93.90;;;;;;5110662;28;21367;-74
2021/01/31 08:40:59;;;;;;;23.38;15.05;;;-0.70;93.70;;;;;;5107133;28;20028;-66
2021/01/31 08:43:41;;;;;;;20.42;14.50;;;-0.60;93.60;;;;;;5114289;28;20554;-67
2021/01/31 08:46:27;;;;;;;22.98;15.35;;;-0.50;93.40;;;;;;5098598;28;20070;-65
2021/01/31 08:48:59;;;;;;;22.10;15.10;;;-0.40;93.30;;;;;;5094179;28;20024;-65
2021/01/31 08:51:33;;;;;;;19.85;13.93;;;-0.30;93.20;;;;;;5093468;28;20392;-66
2021/01/31 08:54:18;;;;;;;22.88;15.10;;;-0.20;93.10;;;;;;5094896;28;20107;-66
2021/01/31 08:56:48;;;;;;;19.75;14.68;;;-0.10;92.90;;;;;;5094902;28;20043;-66
2021/01/31 08:59:27;;;;;;;19.30;13.93;;;0.00;92.70;;;;;;5093530;28;20051;-65
2021/01/31 09:01:58;;;;;;;22.13;15.48;;;0.10;92.70;;;;;;5104889;28;20031;-65
2021/01/31 09:04:25;;;;;;;21.80;15.48;;;0.20;92.50;;;;;;5095030;28;20040;-66
2021/01/31 09:06:51;;;;;;;19.83;14.60;;;0.30;92.40;;;;;;5099273;28;20023;-66
2021/01/31 09:09:36;;;;;;;20.98;14.63;;;0.30;92.20;;;;;;5114491;28;20034;-66
2021/01/31 09:12:05;;;;;;;20.80;15.18;;;0.40;92.00;;;;;;5114195;28;20039;-65
2021/01/31 09:14:36;;;;;;;22.88;15.80;;;0.50;91.90;;;;;;5114365;28;20024;-66
2021/01/31 09:17:23;;;;;;;20.98;15.38;;;0.60;91.80;;;;;;5114291;28;20352;-66
2021/01/31 09:19:49;;;;;;;23.25;16.25;;;0.60;91.40;;;;;;5100393;28;20054;-67
2021/01/31 09:22:20;;;;;;;33.95;16.33;;;0.60;91.30;;;;;;5093669;28;20472;-70
2021/01/31 09:24:51;;;;;;;19.30;14.40;;;0.70;91.30;;;;;;5074972;28;20020;-67
2021/01/31 09:27:21;;;;;;;22.07;15.50;;;0.70;91.20;;;;;;5092222;28;20388;-65
2021/01/31 09:29:48;;;;;;;20.55;14.73;;;0.70;91.00;;;;;;5093537;28;20098;-70
2021/01/31 09:32:31;;;;;;;19.90;14.30;;;0.70;91.00;;;;;;5093500;28;20125;-74
2021/01/31 09:34:58;;;;;;;23.40;14.50;;;0.70;91.00;;;;;;5074798;28;20016;-73
2021/01/31 09:37:29;;;;;;;21.70;15.32;;;0.70;90.90;;;;;;5092594;28;20032;-69
2021/01/31 09:40:03;;;;;;;20.73;15.48;;;0.60;90.70;;;;;;5092115;28;20143;-64
2021/01/31 09:42:35;;;;;;;20.80;15.02;;;0.60;90.80;;;;;;5094033;28;20453;-73
2021/01/31 09:45:08;;;;;;;23.65;16.05;;;0.60;90.80;;;;;;5092996;28;20020;-67
2021/01/31 09:47:34;;;;;;;22.13;15.65;;;0.70;90.90;;;;;;5097141;28;20030;-67
2021/01/31 09:50:10;;;;;;;19.77;14.88;;;0.70;90.80;;;;;;5107793;28;20380;-70
2021/01/31 09:52:44;;;;;;;24.52;16.48;;;0.70;90.80;;;;;;5107006;28;20372;-73
2021/01/31 09:55:27;;;;;;;22.88;15.50;;;0.70;91.00;;;;;;5092903;28;20038;-70
2021/01/31 09:57:52;;;;;;;22.52;15.93;;;0.70;90.70;;;;;;5075485;28;20024;-80
2021/01/31 10:00:26;;;;;;;22.42;16.30;;;0.80;90.70;;;;;;5097653;28;20086;-79
2021/01/31 10:03:05;;;;;;;23.23;16.08;;;0.80;90.70;;;;;;5100495;28;20135;-74
2021/01/31 10:05:35;;;;;;;20.90;15.27;;;0.80;90.60;;;;;;5094458;28;20050;-74
2021/01/31 10:08:13;;;;;;;23.00;16.60;;;0.80;90.60;;;;;;5093710;28;20028;-77
2021/01/31 10:10:41;;;;;;;24.77;16.35;;;0.80;90.60;;;;;;5093356;28;20078;-68
2021/01/31 10:13:37;;;;;;;20.63;15.75;;;0.90;90.60;;;;;;5094779;28;20023;-74
2021/01/31 10:16:15;;;;;;;22.92;16.17;;;0.90;90.60;;;;;;5098236;28;20019;-75
2021/01/31 10:18:41;;;;;;;23.45;16.55;;;1.00;90.40;;;;;;5113510;28;20170;-66
2021/01/31 10:21:20;;;;;;;22.77;16.92;;;1.00;90.40;;;;;;5111939;28;20491;-68
2021/01/31 10:23:48;;;;;;;23.48;17.10;;;1.00;90.20;;;;;;5096953;28;20108;-68
2021/01/31 10:26:20;;;;;;;24.30;16.73;;;0.90;90.20;;;;;;5097323;28;20046;-68
2021/01/31 10:28:58;;;;;;;23.13;16.52;;;1.00;90.20;;;;;;5114400;28;20035;-70
2021/01/31 10:31:32;;;;;;;26.77;17.42;;;1.00;90.20;;;;;;5103250;28;20414;-70
2021/01/31 10:34:01;;;;;;;23.55;17.10;;;1.00;90.20;;;;;;5098425;28;20051;-69
2021/01/31 10:36:44;;;;;;;22.83;16.65;;;1.10;90.20;;;;;;5081674;28;20023;-74
2021/01/31 10:39:13;;;;;;;22.65;16.60;;;1.10;90.20;;;;;;5102136;28;20085;-77
2021/01/31 10:41:40;;;;;;;24.77;16.42;;;1.10;90.20;;;;;;5097413;28;20059;-76
2021/01/31 10:44:11;;;;;;;23.77;15.82;;;1.20;90.10;;;;;;5108541;28;20038;-72
2021/01/31 10:46:38;;;;;;;25.05;17.35;;;1.20;90.00;;;;;;5108529;28;20438;-71
2021/01/31 10:49:04;;;;;;;24.75;16.92;;;1.30;90.00;;;;;;5092060;28;20064;-68
2021/01/31 10:51:32;;;;;;;23.77;17.13;;;1.30;89.80;;;;;;5091892;28;20086;-68
2021/01/31 10:53:59;;;;;;;23.17;17.27;;;1.40;89.80;;;;;;5074252;28;20032;-77
2021/01/31 10:56:24;;;;;;;24.80;18.40;;;1.50;89.70;;;;;;5073854;28;20024;-76
2021/01/31 10:58:50;;;;;;;22.35;16.13;;;1.50;89.40;;;;;;5095371;28;20027;-77
2021/01/31 11:01:16;;;;;;;22.63;16.35;;;1.60;89.50;;;;;;5112537;28;20028;-79
2021/01/31 11:03:42;;;;;;;24.85;18.52;;;1.60;89.30;;;;;;5105359;28;20035;-74
2021/01/31 11:06:07;;;;;;;25.92;16.95;;;1.70;89.00;;;;;;5091694;28;20035;-76
2021/01/31 11:08:33;;;;;;;24.77;17.83;;;1.70;88.70;;;;;;5100080;28;20024;-75
2021/01/31 11:11:00;;;;;;;24.52;17.73;;;1.70;88.70;;;;;;5112340;28;20046;-72
2021/01/31 11:13:26;;;;;;;22.67;17.00;;;1.70;88.70;;;;;;5111628;28;20031;-74
2021/01/31 11:15:52;;;;;;;22.38;15.70;;;1.80;88.80;;;;;;5110938;28;20032;-76
2021/01/31 11:18:18;;;;;;;21.13;16.15;;;1.80;88.70;;;;;;5096307;28;20024;-71
2021/01/31 11:20:44;;;;;;;20.80;16.10;;;1.90;88.50;;;;;;5091555;28;20040;-66
2021/01/31 11:23:10;;;;;;;20.70;15.98;;;2.00;88.20;;;;;;5098564;28;20433;-67
2021/01/31 11:25:36;;;;;;;21.20;15.38;;;2.00;88.10;;;;;;5096798;28;20035;-79
2021/01/31 11:28:02;;;;;;;21.15;16.25;;;2.10;88.00;;;;;;5092399;28;20455;-77
2021/01/31 11:30:29;;;;;;;22.20;16.77;;;2.20;87.90;;;;;;5093809;28;20475;-70
2021/01/31 11:32:56;;;;;;;21.52;15.50;;;2.20;87.50;;;;;;5110883;28;20028;-76
2021/01/31 11:35:22;;;;;;;21.67;16.25;;;2.20;87.60;;;;;;5091360;28;20044;-74
2021/01/31 11:37:47;;;;;;;23.63;16.67;;;2.30;87.60;;;;;;5091256;28;20024;-68
2021/01/31 11:40:13;;;;;;;20.77;15.85;;;2.30;87.50;;;;;;5072689;28;20563;-76
2021/01/31 11:42:39;;;;;;;22.60;16.65;;;2.40;87.40;;;;;;5096955;28;20640;-71
2021/01/31 11:45:07;;;;;;;21.73;16.15;;;2.40;87.20;;;;;;5094194;28;20035;-70
2021/01/31 11:47:34;;;;;;;26.23;18.58;;;2.40;86.90;;;;;;5110627;28;20039;-77
2021/01/31 11:50:00;;;;;;;19.27;14.98;;;2.40;86.80;;;;;;5114853;28;20476;-72
2021/01/31 11:52:26;;;;;;;21.75;15.77;;;2.40;86.80;;;;;;5116014;28;20038;-73
2021/01/31 11:54:51;;;;;;;21.20;16.35;;;2.40;86.80;;;;;;5114732;28;20467;-76
2021/01/31 11:57:17;;;;;;;22.08;16.65;;;2.50;86.80;;;;;;5096348;28;20039;-72
2021/01/31 11:59:43;;;;;;;22.17;16.98;;;2.50;86.80;;;;;;5079316;28;20028;-67
2021/01/31 12:02:08;;;;;;;21.50;16.30;;;2.40;87.00;;;;;;5095096;28;20107;-71
2021/01/31 12:04:34;;;;;;;18.88;15.13;;;2.40;87.10;;;;;;5103409;28;20095;-75
2021/01/31 12:06:59;;;;;;;20.67;15.07;;;2.40;87.10;;;;;;5107188;28;20496;-81
2021/01/31 12:09:26;;;;;;;21.25;15.00;;;2.50;86.80;;;;;;5094366;28;20077;-69
2021/01/31 12:11:51;;;;;;;19.10;14.68;;;2.50;86.70;;;;;;5106401;28;20016;-72
2021/01/31 12:14:17;;;;;;;18.50;14.70;;;2.50;86.80;;;;;;5116581;28;20459;-81
2021/01/31 12:16:43;;;;;;;20.27;15.00;;;2.50;86.90;;;;;;5115359;28;20099;-73
2021/01/31 12:19:09;;;;;;;20.58;14.57;;;2.60;86.90;;;;;;5115404;28;20030;-68
2021/01/31 12:21:34;;;;;;;21.98;16.05;;;2.70;86.90;;;;;;5115649;28;20031;-75
2021/01/31 12:24:00;;;;;;;20.30;14.55;;;2.70;86.70;;;;;;5085825;28;20019;-69
2021/01/31 12:26:26;;;;;;;18.77;14.60;;;2.70;86.70;;;;;;5076635;28;20016;-66
2021/01/31 12:28:51;;;;;;;19.45;14.93;;;2.70;86.60;;;;;;5093888;28;20089;-73
2021/01/31 12:31:18;;;;;;;20.05;15.30;;;2.80;86.30;;;;;;5094097;28;20361;-71
2021/01/31 12:33:44;;;;;;;18.27;13.65;;;2.70;86.20;;;;;;5098339;28;20047;-66
2021/01/31 12:36:09;;;;;;;17.70;14.05;;;2.80;86.30;;;;;;5114786;28;20491;-69
2021/01/31 12:38:36;;;;;;;18.92;13.30;;;2.70;86.40;;;;;;5113068;28;20031;-67
2021/01/31 12:41:01;;;;;;;18.35;13.38;;;2.70;86.60;;;;;;5113466;28;20039;-68
2021/01/31 12:43:27;;;;;;;18.08;13.90;;;2.70;86.60;;;;;;5112597;28;20016;-70
2021/01/31 12:45:52;;;;;;;17.67;12.73;;;2.80;86.80;;;;;;5113508;28;20031;-71
2021/01/31 12:48:18;;;;;;;21.20;14.77;;;2.80;86.70;;;;;;5094707;28;20018;-67
2021/01/31 12:50:43;;;;;;;17.55;13.43;;;2.80;86.60;;;;;;5095027;28;20118;-69
2021/01/31 12:53:09;;;;;;;17.08;12.85;;;2.90;86.50;;;;;;5113969;28;20031;-70
2021/01/31 12:55:37;;;;;;;20.75;14.38;;;3.00;86.30;;;;;;5115049;28;20023;-71
2021/01/31 12:58:03;;;;;;;16.60;13.05;;;2.90;86.30;;;;;;5114661;28;20018;-71
2021/01/31 13:00:29;;;;;;;19.42;12.63;;;2.90;86.30;;;;;;5114073;28;20121;-70